Country
Station

 

Weather  for  Forli  -  Italy    Italy

  
26 °C (79 °F)
    
 
 

Current METAR for Forli is :

LIPK 180950Z 01005KT CAVOK 26/17 Q1015

 

This is a report for Forli - Italy.
 
The report was made 24 minutes ago, at 09:50 UTC .
The wind was blowing at a speed of 2.6 meters per second (5.8 miles per hour) from north (010°).
 
The temperature was 26 °C (79 °F), with a dew-point at 17 °C (63 °F).
The temperature felt like 27 °C (81 °F).
 
The atmospheric pressure was 1015 hPa (29.97 inHg).
The relative humidity was 57.6%.
 
There were no clouds below 1500 meter (5000 feet) and no cumulonimbus clouds.
 
The overall visibility was greater than 10 kilometers (6.2 miles).
 

 
 
 
 

Country :   A   B   C   D   E   F   G   H   I   J   K   L   M   N   O   P   Q   R   S   T   U   V   W   Y   Z

 

Site Info  |  Disclaimer  |  Credits  |  Privacy
Contact us  |  Add to favorites
© 2013-2019 METARs - All rights reserved